Randolph AFB, Texas
Current Conditions -  °F | °C
As of 8:58 AM on Monday 24 Nov 2014 (Local Time) from KRND Reporting Station
Clear Clear  
Wind Chill: 53°   Ceiling: Unl
Heat Index: 53°   Visibility: 10mi
Dew Point: 35°   Wind: 10mph
Humidity: 51%   Direction: 320°NW
Pressure: 30.09"   Gusts: NA
Location:  29.5519°N, 98.3081°W
Report Text: KRND 241458Z AUTO 32009KT 10SM CLR 12/02 A3009 RMK AO2 SLP187 T01180018 52038
Loading
Personal Weather Stations






























Interactive Weather Map New forecast layout! Learn more

10-Day Weather Forecast

Advertisements
Track Severe Weather on mobile